Tsiigehtchic, Canada
Current Conditions -  °F | °C
As of 9:00 PM on Tuesday 21 Oct 2014 (Local Time) from CYEV Reporting Station
Overcast Overcast  
Wind Chill:   Ceiling: 15000
Heat Index: 21°   Visibility: 15mi
Dew Point: 14°   Wind: 12mph
Humidity: 74%   Direction: 70°ENE
Pressure: 29.85"   Gusts: 18mph
Location:  67.43°N, 133.75°W
Report Text: CYEV 220300Z 07010G16KT 15SM OVC150 M06/M10 A2985 RMK AC8 SLP116
Loading
Personal Weather Stations






























Interactive Weather Map
Tropical Storm Tracking
New forecast layout! Learn more

10-Day Weather Forecast

Advertisements
Track Severe Weather on mobile